sensor_id;sensor_type;location;lat;lon;timestamp;P1;durP1;ratioP1;P2;durP2;ratioP2
45011;SDS011;63444;48.148;11.542;2023-11-18T00:00:16;6.27;;;5.77;;
45011;SDS011;63444;48.148;11.542;2023-11-18T00:02:42;6.83;;;6.23;;
45011;SDS011;63444;48.148;11.542;2023-11-18T00:05:08;6.30;;;5.70;;
45011;SDS011;63444;48.148;11.542;2023-11-18T00:07:35;6.47;;;5.87;;
45011;SDS011;63444;48.148;11.542;2023-11-18T00:10:00;6.60;;;6.00;;
45011;SDS011;63444;48.148;11.542;2023-11-18T00:12:26;6.67;;;6.07;;
45011;SDS011;63444;48.148;11.542;2023-11-18T00:14:51;6.67;;;6.13;;
45011;SDS011;63444;48.148;11.542;2023-11-18T00:17:17;6.30;;;5.77;;
45011;SDS011;63444;48.148;11.542;2023-11-18T00:19:45;6.77;;;6.07;;
45011;SDS011;63444;48.148;11.542;2023-11-18T00:22:10;6.10;;;5.57;;
45011;SDS011;63444;48.148;11.542;2023-11-18T00:24:36;6.67;;;6.00;;
45011;SDS011;63444;48.148;11.542;2023-11-18T00:27:03;5.33;;;4.93;;
45011;SDS011;63444;48.148;11.542;2023-11-18T00:29:32;6.23;;;5.73;;
45011;SDS011;63444;48.148;11.542;2023-11-18T00:31:58;5.40;;;5.00;;
45011;SDS011;63444;48.148;11.542;2023-11-18T00:34:24;5.23;;;4.73;;
45011;SDS011;63444;48.148;11.542;2023-11-18T00:36:50;5.53;;;5.03;;
45011;SDS011;63444;48.148;11.542;2023-11-18T00:39:17;4.60;;;4.20;;
45011;SDS011;63444;48.148;11.542;2023-11-18T00:41:43;4.10;;;3.70;;
45011;SDS011;63444;48.148;11.542;2023-11-18T00:44:08;4.10;;;3.80;;
45011;SDS011;63444;48.148;11.542;2023-11-18T00:46:34;3.87;;;3.57;;
45011;SDS011;63444;48.148;11.542;2023-11-18T00:49:03;3.30;;;3.10;;
45011;SDS011;63444;48.148;11.542;2023-11-18T00:51:30;3.53;;;3.30;;
45011;SDS011;63444;48.148;11.542;2023-11-18T00:53:55;3.10;;;2.83;;
45011;SDS011;63444;48.148;11.542;2023-11-18T00:56:21;3.00;;;2.80;;
45011;SDS011;63444;48.148;11.542;2023-11-18T00:58:50;2.97;;;2.77;;
45011;SDS011;63444;48.148;11.542;2023-11-18T01:01:15;3.33;;;3.03;;
45011;SDS011;63444;48.148;11.542;2023-11-18T01:03:44;3.17;;;2.90;;
45011;SDS011;63444;48.148;11.542;2023-11-18T01:06:11;2.77;;;2.57;;
45011;SDS011;63444;48.148;11.542;2023-11-18T01:08:37;3.30;;;3.10;;
45011;SDS011;63444;48.148;11.542;2023-11-18T01:11:03;2.70;;;2.50;;
45011;SDS011;63444;48.148;11.542;2023-11-18T01:13:29;2.57;;;2.37;;
45011;SDS011;63444;48.148;11.542;2023-11-18T01:15:56;3.27;;;3.00;;
45011;SDS011;63444;48.148;11.542;2023-11-18T01:18:22;2.83;;;2.63;;
45011;SDS011;63444;48.148;11.542;2023-11-18T01:20:48;3.00;;;2.70;;
45011;SDS011;63444;48.148;11.542;2023-11-18T01:23:14;2.60;;;2.40;;
45011;SDS011;63444;48.148;11.542;2023-11-18T01:25:39;2.97;;;2.77;;
45011;SDS011;63444;48.148;11.542;2023-11-18T01:28:05;2.10;;;2.00;;
45011;SDS011;63444;48.148;11.542;2023-11-18T01:30:31;2.60;;;2.40;;
45011;SDS011;63444;48.148;11.542;2023-11-18T01:32:57;2.67;;;2.47;;
45011;SDS011;63444;48.148;11.542;2023-11-18T01:35:26;2.60;;;2.40;;
45011;SDS011;63444;48.148;11.542;2023-11-18T01:37:52;2.63;;;2.43;;
45011;SDS011;63444;48.148;11.542;2023-11-18T01:40:19;2.30;;;2.10;;
45011;SDS011;63444;48.148;11.542;2023-11-18T01:42:45;2.30;;;2.10;;
45011;SDS011;63444;48.148;11.542;2023-11-18T01:45:11;2.50;;;2.30;;
45011;SDS011;63444;48.148;11.542;2023-11-18T01:47:39;2.70;;;2.50;;
45011;SDS011;63444;48.148;11.542;2023-11-18T01:50:06;2.47;;;2.27;;
45011;SDS011;63444;48.148;11.542;2023-11-18T01:52:36;2.40;;;2.20;;
45011;SDS011;63444;48.148;11.542;2023-11-18T01:55:02;2.37;;;2.17;;
45011;SDS011;63444;48.148;11.542;2023-11-18T01:57:31;2.70;;;2.50;;
45011;SDS011;63444;48.148;11.542;2023-11-18T01:59:58;2.70;;;2.50;;
45011;SDS011;63444;48.148;11.542;2023-11-18T02:02:23;2.60;;;2.40;;
45011;SDS011;63444;48.148;11.542;2023-11-18T02:04:50;2.83;;;2.57;;
45011;SDS011;63444;48.148;11.542;2023-11-18T02:07:16;2.37;;;2.17;;
45011;SDS011;63444;48.148;11.542;2023-11-18T02:09:43;2.57;;;2.37;;
45011;SDS011;63444;48.148;11.542;2023-11-18T02:14:51;2.73;;;2.53;;
45011;SDS011;63444;48.148;11.542;2023-11-18T02:17:20;2.30;;;2.20;;
45011;SDS011;63444;48.148;11.542;2023-11-18T02:19:49;2.67;;;2.47;;
45011;SDS011;63444;48.148;11.542;2023-11-18T02:22:18;2.57;;;2.37;;
45011;SDS011;63444;48.148;11.542;2023-11-18T02:24:46;2.50;;;2.30;;
45011;SDS011;63444;48.148;11.542;2023-11-18T02:27:12;2.87;;;2.60;;
45011;SDS011;63444;48.148;11.542;2023-11-18T02:29:39;2.77;;;2.57;;
45011;SDS011;63444;48.148;11.542;2023-11-18T02:37:35;2.70;;;2.50;;
45011;SDS011;63444;48.148;11.542;2023-11-18T02:40:07;2.90;;;2.70;;
45011;SDS011;63444;48.148;11.542;2023-11-18T02:42:39;3.20;;;3.00;;
45011;SDS011;63444;48.148;11.542;2023-11-18T02:45:07;2.70;;;2.50;;
45011;SDS011;63444;48.148;11.542;2023-11-18T02:47:37;2.87;;;2.50;;
45011;SDS011;63444;48.148;11.542;2023-11-18T02:50:04;2.50;;;2.30;;
45011;SDS011;63444;48.148;11.542;2023-11-18T02:52:36;3.13;;;2.60;;
45011;SDS011;63444;48.148;11.542;2023-11-18T02:55:03;2.73;;;2.53;;
45011;SDS011;63444;48.148;11.542;2023-11-18T02:57:31;3.37;;;2.60;;
45011;SDS011;63444;48.148;11.542;2023-11-18T02:59:57;2.87;;;2.67;;
45011;SDS011;63444;48.148;11.542;2023-11-18T03:02:25;2.33;;;2.23;;
45011;SDS011;63444;48.148;11.542;2023-11-18T03:04:55;2.93;;;2.63;;
45011;SDS011;63444;48.148;11.542;2023-11-18T03:07:25;2.57;;;2.37;;
45011;SDS011;63444;48.148;11.542;2023-11-18T03:09:54;2.77;;;2.57;;
45011;SDS011;63444;48.148;11.542;2023-11-18T03:12:21;2.80;;;2.60;;
45011;SDS011;63444;48.148;11.542;2023-11-18T03:14:47;2.90;;;2.70;;
45011;SDS011;63444;48.148;11.542;2023-11-18T03:17:13;3.33;;;3.03;;
45011;SDS011;63444;48.148;11.542;2023-11-18T03:19:39;3.20;;;2.90;;
45011;SDS011;63444;48.148;11.542;2023-11-18T03:22:04;3.60;;;2.67;;
45011;SDS011;63444;48.148;11.542;2023-11-18T03:24:30;2.77;;;2.57;;
45011;SDS011;63444;48.148;11.542;2023-11-18T03:26:55;2.67;;;2.53;;
45011;SDS011;63444;48.148;11.542;2023-11-18T03:29:21;2.90;;;2.70;;
45011;SDS011;63444;48.148;11.542;2023-11-18T03:31:48;3.20;;;2.90;;
45011;SDS011;63444;48.148;11.542;2023-11-18T03:34:14;3.00;;;2.80;;
45011;SDS011;63444;48.148;11.542;2023-11-18T03:36:45;2.80;;;2.60;;
45011;SDS011;63444;48.148;11.542;2023-11-18T03:39:16;3.00;;;2.80;;
45011;SDS011;63444;48.148;11.542;2023-11-18T03:41:41;2.80;;;2.60;;
45011;SDS011;63444;48.148;11.542;2023-11-18T03:44:09;3.00;;;2.80;;
45011;SDS011;63444;48.148;11.542;2023-11-18T03:46:37;3.17;;;2.83;;
45011;SDS011;63444;48.148;11.542;2023-11-18T03:49:03;3.10;;;2.90;;
45011;SDS011;63444;48.148;11.542;2023-11-18T03:51:28;2.90;;;2.70;;
45011;SDS011;63444;48.148;11.542;2023-11-18T03:53:54;3.10;;;2.90;;
45011;SDS011;63444;48.148;11.542;2023-11-18T03:56:20;3.40;;;3.10;;
45011;SDS011;63444;48.148;11.542;2023-11-18T03:58:46;3.80;;;3.50;;
45011;SDS011;63444;48.148;11.542;2023-11-18T04:01:24;3.50;;;3.27;;
45011;SDS011;63444;48.148;11.542;2023-11-18T04:03:53;4.00;;;3.60;;
45011;SDS011;63444;48.148;11.542;2023-11-18T04:06:20;3.03;;;2.83;;
45011;SDS011;63444;48.148;11.542;2023-11-18T04:08:46;3.70;;;3.40;;
45011;SDS011;63444;48.148;11.542;2023-11-18T04:11:13;3.70;;;3.40;;
45011;SDS011;63444;48.148;11.542;2023-11-18T04:13:43;4.13;;;3.83;;
45011;SDS011;63444;48.148;11.542;2023-11-18T04:16:15;4.43;;;4.03;;
45011;SDS011;63444;48.148;11.542;2023-11-18T04:18:43;5.00;;;3.60;;
45011;SDS011;63444;48.148;11.542;2023-11-18T04:21:09;4.17;;;3.87;;
45011;SDS011;63444;48.148;11.542;2023-11-18T04:23:36;4.33;;;4.03;;
45011;SDS011;63444;48.148;11.542;2023-11-18T04:26:05;4.10;;;3.80;;
45011;SDS011;63444;48.148;11.542;2023-11-18T04:28:32;4.13;;;3.83;;
45011;SDS011;63444;48.148;11.542;2023-11-18T04:30:58;4.40;;;4.00;;
45011;SDS011;63444;48.148;11.542;2023-11-18T04:33:24;4.63;;;4.13;;
45011;SDS011;63444;48.148;11.542;2023-11-18T04:35:50;4.73;;;4.33;;
45011;SDS011;63444;48.148;11.542;2023-11-18T04:38:16;4.40;;;4.00;;
45011;SDS011;63444;48.148;11.542;2023-11-18T04:40:42;4.00;;;3.70;;
45011;SDS011;63444;48.148;11.542;2023-11-18T04:43:10;4.50;;;4.10;;
45011;SDS011;63444;48.148;11.542;2023-11-18T04:45:36;4.10;;;3.80;;
45011;SDS011;63444;48.148;11.542;2023-11-18T04:48:02;4.30;;;4.00;;
45011;SDS011;63444;48.148;11.542;2023-11-18T04:50:29;4.37;;;4.07;;
45011;SDS011;63444;48.148;11.542;2023-11-18T04:52:55;4.47;;;4.03;;
45011;SDS011;63444;48.148;11.542;2023-11-18T04:55:21;4.30;;;3.50;;
45011;SDS011;63444;48.148;11.542;2023-11-18T04:57:47;4.30;;;4.00;;
45011;SDS011;63444;48.148;11.542;2023-11-18T05:00:13;4.27;;;3.87;;
45011;SDS011;63444;48.148;11.542;2023-11-18T05:02:41;4.47;;;4.07;;
45011;SDS011;63444;48.148;11.542;2023-11-18T05:05:08;3.87;;;3.57;;
45011;SDS011;63444;48.148;11.542;2023-11-18T05:07:34;4.10;;;3.80;;
45011;SDS011;63444;48.148;11.542;2023-11-18T05:10:00;4.03;;;3.73;;
45011;SDS011;63444;48.148;11.542;2023-11-18T05:12:28;3.90;;;3.60;;
45011;SDS011;63444;48.148;11.542;2023-11-18T05:14:54;3.90;;;3.57;;
45011;SDS011;63444;48.148;11.542;2023-11-18T05:17:21;3.90;;;3.50;;
45011;SDS011;63444;48.148;11.542;2023-11-18T05:19:47;4.40;;;4.00;;
45011;SDS011;63444;48.148;11.542;2023-11-18T05:22:13;3.73;;;3.43;;
45011;SDS011;63444;48.148;11.542;2023-11-18T05:24:39;4.10;;;3.80;;
45011;SDS011;63444;48.148;11.542;2023-11-18T05:27:04;3.93;;;3.40;;
45011;SDS011;63444;48.148;11.542;2023-11-18T05:29:30;4.00;;;3.70;;
45011;SDS011;63444;48.148;11.542;2023-11-18T05:31:57;4.07;;;3.77;;
45011;SDS011;63444;48.148;11.542;2023-11-18T05:34:22;4.30;;;4.00;;
45011;SDS011;63444;48.148;11.542;2023-11-18T05:36:48;4.10;;;3.80;;
45011;SDS011;63444;48.148;11.542;2023-11-18T05:39:19;4.20;;;3.90;;
45011;SDS011;63444;48.148;11.542;2023-11-18T05:41:49;4.20;;;3.80;;
45011;SDS011;63444;48.148;11.542;2023-11-18T05:44:16;4.90;;;4.50;;
45011;SDS011;63444;48.148;11.542;2023-11-18T05:46:47;5.63;;;4.73;;
45011;SDS011;63444;48.148;11.542;2023-11-18T05:49:12;4.60;;;4.17;;
45011;SDS011;63444;48.148;11.542;2023-11-18T05:51:39;4.03;;;3.73;;
45011;SDS011;63444;48.148;11.542;2023-11-18T05:54:08;4.30;;;4.00;;
45011;SDS011;63444;48.148;11.542;2023-11-18T05:56:33;4.37;;;3.97;;
45011;SDS011;63444;48.148;11.542;2023-11-18T05:58:59;3.70;;;3.40;;
45011;SDS011;63444;48.148;11.542;2023-11-18T06:01:29;4.80;;;4.27;;
45011;SDS011;63444;48.148;11.542;2023-11-18T06:03:55;4.67;;;4.27;;
45011;SDS011;63444;48.148;11.542;2023-11-18T06:06:22;4.20;;;3.80;;
45011;SDS011;63444;48.148;11.542;2023-11-18T06:08:48;4.23;;;3.90;;
45011;SDS011;63444;48.148;11.542;2023-11-18T06:11:14;4.57;;;4.10;;
45011;SDS011;63444;48.148;11.542;2023-11-18T06:13:47;4.43;;;4.03;;
45011;SDS011;63444;48.148;11.542;2023-11-18T06:16:15;4.50;;;4.10;;
45011;SDS011;63444;48.148;11.542;2023-11-18T06:18:42;4.70;;;4.30;;
45011;SDS011;63444;48.148;11.542;2023-11-18T06:21:12;4.50;;;4.10;;
45011;SDS011;63444;48.148;11.542;2023-11-18T06:23:39;4.53;;;3.80;;
45011;SDS011;63444;48.148;11.542;2023-11-18T06:26:06;4.33;;;3.93;;
45011;SDS011;63444;48.148;11.542;2023-11-18T06:28:31;4.63;;;4.23;;
45011;SDS011;63444;48.148;11.542;2023-11-18T06:30:59;4.00;;;3.70;;
45011;SDS011;63444;48.148;11.542;2023-11-18T06:33:24;4.47;;;3.87;;
45011;SDS011;63444;48.148;11.542;2023-11-18T06:35:52;4.70;;;4.20;;
45011;SDS011;63444;48.148;11.542;2023-11-18T06:38:19;4.27;;;3.87;;
45011;SDS011;63444;48.148;11.542;2023-11-18T06:40:45;4.60;;;4.20;;
45011;SDS011;63444;48.148;11.542;2023-11-18T06:43:17;4.37;;;3.97;;
45011;SDS011;63444;48.148;11.542;2023-11-18T06:45:44;4.37;;;3.97;;
45011;SDS011;63444;48.148;11.542;2023-11-18T06:48:09;4.10;;;3.77;;
45011;SDS011;63444;48.148;11.542;2023-11-18T06:50:35;4.47;;;3.80;;
45011;SDS011;63444;48.148;11.542;2023-11-18T06:53:01;4.43;;;4.03;;
45011;SDS011;63444;48.148;11.542;2023-11-18T06:55:27;4.33;;;3.80;;
45011;SDS011;63444;48.148;11.542;2023-11-18T06:57:52;4.30;;;3.90;;
45011;SDS011;63444;48.148;11.542;2023-11-18T07:00:20;4.33;;;3.93;;
45011;SDS011;63444;48.148;11.542;2023-11-18T07:02:47;4.00;;;3.67;;
45011;SDS011;63444;48.148;11.542;2023-11-18T07:05:12;4.43;;;4.03;;
45011;SDS011;63444;48.148;11.542;2023-11-18T07:07:39;3.97;;;3.67;;
45011;SDS011;63444;48.148;11.542;2023-11-18T07:10:06;4.67;;;4.00;;
45011;SDS011;63444;48.148;11.542;2023-11-18T07:12:32;5.47;;;4.77;;
45011;SDS011;63444;48.148;11.542;2023-11-18T07:15:03;5.93;;;4.60;;
45011;SDS011;63444;48.148;11.542;2023-11-18T07:17:29;5.03;;;4.53;;
45011;SDS011;63444;48.148;11.542;2023-11-18T07:19:55;4.83;;;4.30;;
45011;SDS011;63444;48.148;11.542;2023-11-18T07:22:21;4.77;;;4.30;;
45011;SDS011;63444;48.148;11.542;2023-11-18T07:24:46;4.90;;;4.50;;
45011;SDS011;63444;48.148;11.542;2023-11-18T07:27:12;4.50;;;4.10;;
45011;SDS011;63444;48.148;11.542;2023-11-18T07:29:38;5.23;;;4.73;;
45011;SDS011;63444;48.148;11.542;2023-11-18T07:32:03;5.93;;;4.70;;
45011;SDS011;63444;48.148;11.542;2023-11-18T07:34:30;5.67;;;4.40;;
45011;SDS011;63444;48.148;11.542;2023-11-18T07:36:58;5.30;;;4.30;;
45011;SDS011;63444;48.148;11.542;2023-11-18T07:39:24;5.10;;;4.53;;
45011;SDS011;63444;48.148;11.542;2023-11-18T07:42:01;5.10;;;4.60;;
45011;SDS011;63444;48.148;11.542;2023-11-18T07:44:26;4.70;;;4.30;;
45011;SDS011;63444;48.148;11.542;2023-11-18T07:46:52;4.63;;;4.23;;
45011;SDS011;63444;48.148;11.542;2023-11-18T07:49:18;5.77;;;4.97;;
45011;SDS011;63444;48.148;11.542;2023-11-18T07:51:44;5.83;;;4.50;;
45011;SDS011;63444;48.148;11.542;2023-11-18T07:54:09;5.83;;;4.33;;
45011;SDS011;63444;48.148;11.542;2023-11-18T07:56:35;4.80;;;4.27;;
45011;SDS011;63444;48.148;11.542;2023-11-18T07:59:01;5.97;;;4.60;;
45011;SDS011;63444;48.148;11.542;2023-11-18T08:01:28;5.03;;;4.00;;
45011;SDS011;63444;48.148;11.542;2023-11-18T08:03:55;4.97;;;4.47;;
45011;SDS011;63444;48.148;11.542;2023-11-18T08:06:21;4.33;;;3.93;;
45011;SDS011;63444;48.148;11.542;2023-11-18T08:08:46;4.53;;;4.13;;
45011;SDS011;63444;48.148;11.542;2023-11-18T08:11:13;4.87;;;3.90;;
45011;SDS011;63444;48.148;11.542;2023-11-18T08:13:39;4.20;;;3.80;;
45011;SDS011;63444;48.148;11.542;2023-11-18T08:16:05;4.70;;;4.13;;
45011;SDS011;63444;48.148;11.542;2023-11-18T08:18:33;4.37;;;3.97;;
45011;SDS011;63444;48.148;11.542;2023-11-18T08:21:00;4.40;;;4.00;;
45011;SDS011;63444;48.148;11.542;2023-11-18T08:23:27;4.33;;;3.90;;
45011;SDS011;63444;48.148;11.542;2023-11-18T08:25:56;4.40;;;4.00;;
45011;SDS011;63444;48.148;11.542;2023-11-18T08:28:22;4.70;;;4.10;;
45011;SDS011;63444;48.148;11.542;2023-11-18T08:30:47;4.20;;;3.80;;
45011;SDS011;63444;48.148;11.542;2023-11-18T08:33:16;4.70;;;4.10;;
45011;SDS011;63444;48.148;11.542;2023-11-18T08:35:42;4.80;;;4.27;;
45011;SDS011;63444;48.148;11.542;2023-11-18T08:38:08;4.70;;;4.20;;
45011;SDS011;63444;48.148;11.542;2023-11-18T08:40:33;4.40;;;3.90;;
45011;SDS011;63444;48.148;11.542;2023-11-18T08:42:59;4.13;;;3.70;;
45011;SDS011;63444;48.148;11.542;2023-11-18T08:45:26;4.23;;;3.83;;
45011;SDS011;63444;48.148;11.542;2023-11-18T08:47:54;4.30;;;3.90;;
45011;SDS011;63444;48.148;11.542;2023-11-18T08:50:20;4.47;;;4.07;;
45011;SDS011;63444;48.148;11.542;2023-11-18T08:52:49;5.13;;;4.07;;
45011;SDS011;63444;48.148;11.542;2023-11-18T08:55:19;4.30;;;3.90;;
45011;SDS011;63444;48.148;11.542;2023-11-18T08:57:50;4.87;;;3.60;;
45011;SDS011;63444;48.148;11.542;2023-11-18T09:00:29;3.90;;;3.50;;
45011;SDS011;63444;48.148;11.542;2023-11-18T09:03:07;3.37;;;3.10;;
45011;SDS011;63444;48.148;11.542;2023-11-18T09:05:33;3.60;;;3.07;;
45011;SDS011;63444;48.148;11.542;2023-11-18T09:08:00;3.77;;;2.67;;
45011;SDS011;63444;48.148;11.542;2023-11-18T09:10:31;3.10;;;2.90;;
45011;SDS011;63444;48.148;11.542;2023-11-18T09:12:56;2.87;;;2.67;;
45011;SDS011;63444;48.148;11.542;2023-11-18T09:15:22;3.03;;;2.80;;
45011;SDS011;63444;48.148;11.542;2023-11-18T09:17:50;3.07;;;2.77;;
45011;SDS011;63444;48.148;11.542;2023-11-18T09:20:17;3.50;;;2.60;;
45011;SDS011;63444;48.148;11.542;2023-11-18T09:22:47;2.50;;;2.30;;
45011;SDS011;63444;48.148;11.542;2023-11-18T09:25:14;2.70;;;2.37;;
45011;SDS011;63444;48.148;11.542;2023-11-18T09:27:41;4.23;;;3.13;;
45011;SDS011;63444;48.148;11.542;2023-11-18T09:30:10;3.50;;;3.20;;
45011;SDS011;63444;48.148;11.542;2023-11-18T09:32:39;3.40;;;3.03;;
45011;SDS011;63444;48.148;11.542;2023-11-18T09:35:07;3.20;;;3.00;;
45011;SDS011;63444;48.148;11.542;2023-11-18T09:37:37;2.60;;;2.40;;
45011;SDS011;63444;48.148;11.542;2023-11-18T09:40:03;3.30;;;2.50;;
45011;SDS011;63444;48.148;11.542;2023-11-18T09:42:40;2.37;;;2.20;;
45011;SDS011;63444;48.148;11.542;2023-11-18T09:45:08;3.10;;;2.80;;
45011;SDS011;63444;48.148;11.542;2023-11-18T09:47:43;3.20;;;2.87;;
45011;SDS011;63444;48.148;11.542;2023-11-18T09:50:12;2.60;;;2.40;;
45011;SDS011;63444;48.148;11.542;2023-11-18T09:52:48;3.30;;;3.00;;
45011;SDS011;63444;48.148;11.542;2023-11-18T09:55:21;3.33;;;3.00;;
45011;SDS011;63444;48.148;11.542;2023-11-18T09:57:55;2.77;;;2.27;;
45011;SDS011;63444;48.148;11.542;2023-11-18T10:00:29;3.27;;;2.30;;
45011;SDS011;63444;48.148;11.542;2023-11-18T10:02:59;2.20;;;2.00;;
45011;SDS011;63444;48.148;11.542;2023-11-18T10:05:28;3.70;;;2.07;;
45011;SDS011;63444;48.148;11.542;2023-11-18T10:07:55;1.90;;;1.80;;
45011;SDS011;63444;48.148;11.542;2023-11-18T10:10:23;2.33;;;2.00;;
45011;SDS011;63444;48.148;11.542;2023-11-18T10:12:51;2.50;;;2.10;;
45011;SDS011;63444;48.148;11.542;2023-11-18T10:15:18;2.10;;;2.00;;
45011;SDS011;63444;48.148;11.542;2023-11-18T10:17:48;2.83;;;2.47;;
45011;SDS011;63444;48.148;11.542;2023-11-18T10:20:47;4.60;;;3.00;;
45011;SDS011;63444;48.148;11.542;2023-11-18T10:23:16;3.20;;;2.80;;
45011;SDS011;63444;48.148;11.542;2023-11-18T10:25:49;2.93;;;2.63;;
45011;SDS011;63444;48.148;11.542;2023-11-18T10:28:29;2.73;;;2.10;;
45011;SDS011;63444;48.148;11.542;2023-11-18T10:31:05;1.90;;;1.80;;
45011;SDS011;63444;48.148;11.542;2023-11-18T10:33:34;1.60;;;1.50;;
45011;SDS011;63444;48.148;11.542;2023-11-18T10:36:02;2.23;;;1.67;;
45011;SDS011;63444;48.148;11.542;2023-11-18T10:38:29;1.90;;;1.50;;
45011;SDS011;63444;48.148;11.542;2023-11-18T10:40:57;1.73;;;1.40;;
45011;SDS011;63444;48.148;11.542;2023-11-18T10:43:26;1.60;;;1.50;;
45011;SDS011;63444;48.148;11.542;2023-11-18T10:48:39;1.97;;;1.73;;
45011;SDS011;63444;48.148;11.542;2023-11-18T10:51:09;1.53;;;1.40;;
45011;SDS011;63444;48.148;11.542;2023-11-18T10:53:37;2.07;;;1.53;;
45011;SDS011;63444;48.148;11.542;2023-11-18T10:56:04;1.77;;;1.67;;
45011;SDS011;63444;48.148;11.542;2023-11-18T10:58:36;1.60;;;1.50;;
45011;SDS011;63444;48.148;11.542;2023-11-18T11:01:06;1.83;;;1.40;;
45011;SDS011;63444;48.148;11.542;2023-11-18T11:03:48;1.50;;;1.40;;
45011;SDS011;63444;48.148;11.542;2023-11-18T11:06:22;1.70;;;1.60;;
45011;SDS011;63444;48.148;11.542;2023-11-18T11:08:55;1.70;;;1.50;;
45011;SDS011;63444;48.148;11.542;2023-11-18T11:11:23;2.83;;;1.70;;
45011;SDS011;63444;48.148;11.542;2023-11-18T11:13:56;3.70;;;1.47;;
45011;SDS011;63444;48.148;11.542;2023-11-18T11:16:25;2.30;;;1.37;;
45011;SDS011;63444;48.148;11.542;2023-11-18T11:19:08;2.10;;;1.50;;
45011;SDS011;63444;48.148;11.542;2023-11-18T11:21:48;1.60;;;1.50;;
45011;SDS011;63444;48.148;11.542;2023-11-18T11:24:26;1.60;;;1.50;;
45011;SDS011;63444;48.148;11.542;2023-11-18T11:27:14;1.40;;;1.30;;
45011;SDS011;63444;48.148;11.542;2023-11-18T11:29:54;1.43;;;1.33;;
45011;SDS011;63444;48.148;11.542;2023-11-18T11:32:35;1.50;;;1.40;;
45011;SDS011;63444;48.148;11.542;2023-11-18T11:35:10;2.07;;;1.40;;
45011;SDS011;63444;48.148;11.542;2023-11-18T11:37:48;2.37;;;1.47;;
45011;SDS011;63444;48.148;11.542;2023-11-18T11:40:15;1.93;;;1.43;;
45011;SDS011;63444;48.148;11.542;2023-11-18T11:42:47;2.27;;;1.30;;
45011;SDS011;63444;48.148;11.542;2023-11-18T11:45:20;2.43;;;1.30;;
45011;SDS011;63444;48.148;11.542;2023-11-18T11:47:50;2.20;;;1.30;;
45011;SDS011;63444;48.148;11.542;2023-11-18T11:50:21;1.40;;;1.30;;
45011;SDS011;63444;48.148;11.542;2023-11-18T11:53:04;1.57;;;1.30;;
45011;SDS011;63444;48.148;11.542;2023-11-18T12:01:03;1.50;;;1.40;;
45011;SDS011;63444;48.148;11.542;2023-11-18T12:03:52;1.30;;;1.20;;
45011;SDS011;63444;48.148;11.542;2023-11-18T12:06:22;1.30;;;1.20;;
45011;SDS011;63444;48.148;11.542;2023-11-18T12:08:54;1.90;;;1.33;;
45011;SDS011;63444;48.148;11.542;2023-11-18T12:11:21;2.13;;;1.60;;
45011;SDS011;63444;48.148;11.542;2023-11-18T12:14:00;1.80;;;1.13;;
45011;SDS011;63444;48.148;11.542;2023-11-18T12:17:01;1.40;;;1.30;;
45011;SDS011;63444;48.148;11.542;2023-11-18T12:19:39;1.80;;;1.40;;
45011;SDS011;63444;48.148;11.542;2023-11-18T12:22:12;1.73;;;1.40;;
45011;SDS011;63444;48.148;11.542;2023-11-18T12:24:46;2.20;;;1.40;;
45011;SDS011;63444;48.148;11.542;2023-11-18T12:30:50;1.20;;;1.10;;
45011;SDS011;63444;48.148;11.542;2023-11-18T12:32:57;1.50;;;1.40;;
45011;SDS011;63444;48.148;11.542;2023-11-18T12:35:29;2.57;;;1.60;;
45011;SDS011;63444;48.148;11.542;2023-11-18T12:43:17;1.60;;;1.50;;
45011;SDS011;63444;48.148;11.542;2023-11-18T12:46:17;1.63;;;1.50;;
45011;SDS011;63444;48.148;11.542;2023-11-18T12:49:26;2.73;;;1.40;;
45011;SDS011;63444;48.148;11.542;2023-11-18T12:51:53;2.43;;;1.40;;
45011;SDS011;63444;48.148;11.542;2023-11-18T12:54:20;1.40;;;1.30;;
45011;SDS011;63444;48.148;11.542;2023-11-18T12:56:50;1.50;;;1.40;;
45011;SDS011;63444;48.148;11.542;2023-11-18T12:59:18;2.47;;;1.40;;
45011;SDS011;63444;48.148;11.542;2023-11-18T13:01:49;1.40;;;1.30;;
45011;SDS011;63444;48.148;11.542;2023-11-18T13:04:28;1.80;;;1.30;;
45011;SDS011;63444;48.148;11.542;2023-11-18T13:06:59;2.03;;;1.30;;
45011;SDS011;63444;48.148;11.542;2023-11-18T13:09:25;2.93;;;1.30;;
45011;SDS011;63444;48.148;11.542;2023-11-18T13:14:21;3.53;;;1.60;;
45011;SDS011;63444;48.148;11.542;2023-11-18T13:16:50;2.20;;;1.30;;
45011;SDS011;63444;48.148;11.542;2023-11-18T13:19:28;3.00;;;1.40;;
45011;SDS011;63444;48.148;11.542;2023-11-18T13:21:57;1.67;;;1.57;;
45011;SDS011;63444;48.148;11.542;2023-11-18T13:24:27;1.83;;;1.40;;
45011;SDS011;63444;48.148;11.542;2023-11-18T13:26:53;1.50;;;1.40;;
45011;SDS011;63444;48.148;11.542;2023-11-18T13:29:21;1.40;;;1.30;;
45011;SDS011;63444;48.148;11.542;2023-11-18T13:31:48;1.80;;;1.37;;
45011;SDS011;63444;48.148;11.542;2023-11-18T13:34:16;1.40;;;1.30;;
45011;SDS011;63444;48.148;11.542;2023-11-18T13:36:42;2.30;;;1.40;;
45011;SDS011;63444;48.148;11.542;2023-11-18T13:39:09;1.40;;;1.30;;
45011;SDS011;63444;48.148;11.542;2023-11-18T13:41:44;2.60;;;1.50;;
45011;SDS011;63444;48.148;11.542;2023-11-18T13:44:13;1.73;;;1.47;;
45011;SDS011;63444;48.148;11.542;2023-11-18T13:47:00;2.97;;;1.50;;
45011;SDS011;63444;48.148;11.542;2023-11-18T13:49:30;1.93;;;1.47;;
45011;SDS011;63444;48.148;11.542;2023-11-18T13:51:56;1.90;;;1.40;;
45011;SDS011;63444;48.148;11.542;2023-11-18T13:54:22;2.27;;;1.20;;
45011;SDS011;63444;48.148;11.542;2023-11-18T13:56:50;2.10;;;1.30;;
45011;SDS011;63444;48.148;11.542;2023-11-18T13:59:16;1.73;;;1.50;;
45011;SDS011;63444;48.148;11.542;2023-11-18T14:01:42;1.50;;;1.33;;
45011;SDS011;63444;48.148;11.542;2023-11-18T14:04:08;1.33;;;1.23;;
45011;SDS011;63444;48.148;11.542;2023-11-18T14:06:35;2.10;;;1.30;;
45011;SDS011;63444;48.148;11.542;2023-11-18T14:09:02;1.40;;;1.30;;
45011;SDS011;63444;48.148;11.542;2023-11-18T14:11:29;1.50;;;1.40;;
45011;SDS011;63444;48.148;11.542;2023-11-18T14:13:55;1.60;;;1.50;;
45011;SDS011;63444;48.148;11.542;2023-11-18T14:16:23;1.53;;;1.30;;
45011;SDS011;63444;48.148;11.542;2023-11-18T14:18:49;2.00;;;1.50;;
45011;SDS011;63444;48.148;11.542;2023-11-18T14:21:14;1.40;;;1.30;;
45011;SDS011;63444;48.148;11.542;2023-11-18T14:23:40;1.70;;;1.40;;
45011;SDS011;63444;48.148;11.542;2023-11-18T14:26:06;1.47;;;1.30;;
45011;SDS011;63444;48.148;11.542;2023-11-18T14:28:35;1.70;;;1.30;;
45011;SDS011;63444;48.148;11.542;2023-11-18T14:31:01;1.60;;;1.47;;
45011;SDS011;63444;48.148;11.542;2023-11-18T14:33:32;1.73;;;1.37;;
45011;SDS011;63444;48.148;11.542;2023-11-18T14:35:59;1.57;;;1.47;;
45011;SDS011;63444;48.148;11.542;2023-11-18T14:38:26;1.73;;;1.50;;
45011;SDS011;63444;48.148;11.542;2023-11-18T14:40:52;1.40;;;1.30;;
45011;SDS011;63444;48.148;11.542;2023-11-18T14:43:18;2.43;;;1.40;;
45011;SDS011;63444;48.148;11.542;2023-11-18T14:45:44;1.97;;;1.30;;
45011;SDS011;63444;48.148;11.542;2023-11-18T14:48:10;3.33;;;1.40;;
45011;SDS011;63444;48.148;11.542;2023-11-18T14:50:36;1.73;;;1.43;;
45011;SDS011;63444;48.148;11.542;2023-11-18T14:53:03;1.87;;;1.50;;
45011;SDS011;63444;48.148;11.542;2023-11-18T14:55:29;1.63;;;1.50;;
45011;SDS011;63444;48.148;11.542;2023-11-18T14:57:55;1.40;;;1.30;;
45011;SDS011;63444;48.148;11.542;2023-11-18T15:00:21;1.83;;;1.50;;
45011;SDS011;63444;48.148;11.542;2023-11-18T15:02:50;1.60;;;1.27;;
45011;SDS011;63444;48.148;11.542;2023-11-18T15:05:16;1.50;;;1.40;;
45011;SDS011;63444;48.148;11.542;2023-11-18T15:07:46;2.43;;;1.57;;